Terminal Aerodrome Forecast
Issued by NWS

Current Version | Previous Version | Text Only | Print | Product List | Glossary On
Versions: 1 2 3 4 5 6 7 8 9 10 11 12 13 14 15 16 17 18 19 20 21 22 23 24 25 26 27 28 29 30 31
000 FTUS41 KBOX 011734 TAFACK TAF KACK 011734Z 0118/0218 02014KT 6SM -RA BR BKN008 OVC010 FM012200 04012G26KT 3SM RA BR BKN008 OVC010 FM021500 06019G29KT 3SM BR OVC010 FM021600 05019G28KT 5SM BR OVC015=

USA.gov is the U.S. government's official web portal to all federal, state and local government web resources and services.